Madras, OR

4:52 PM PDT on September 23, 2014 (GMT -0700)
Downtown Madras | Change Station
CLOSE
Current Station
Personal Weather Station
Location: Madras, OR
Elevation: 2262 ft
Nearby Weather Stations

Elev 2262 ft 44.63 °N, 121.13 °W | Updated 5 seconds ago

Partly Cloudy
Partly Cloudy
78.9 °F
Feels Like 79 °F
N
2.0
Wind Variable Wind from WSW
Gusts 10.0 mph

Today
High -- | Low -- °F
--% Chance of Precip.
Yesterday
High -- | Low -- °F
Precip. -- in
6:52 AM 6:59 PM
Waning Crescent, 0% visible
Pressure 29.80 in
Visibility 10.0 miles
Clouds Few 12000 ft
Heat Index 79 °F
Dew Point 48 °F
Humidity 34%
Rainfall 0.00 in
Snow Depth 0 in , 0 in , 1 in
UV 3 out of 12
Pollen .40 out of 12
Air Quality Not available.
Flu Activity Not available.
METAR KRDM 232256Z 19012G19KT 10SM FEW120 25/05 A2986 RMK AO2 SLP089 T02500050

More Conditions Fewer Conditions

Pressure 29.80 in
Visibility 10.0 miles
Clouds Few 12000 ft
Heat Index 79 °F
Dew Point 48 °F
Humidity 34%
Rainfall 0.00 in
Snow Depth 0 in , 0 in , 1 in
UV 3 out of 12
Pollen .40 out of 12
Air Quality Not available.
Flu Activity Not available.
METAR KRDM 232256Z 19012G19KT 10SM FEW120 25/05 A2986 RMK AO2 SLP089 T02500050

More Conditions Fewer Conditions

10-Day Weather Forecast

Almanac

Astronomy

Sep. 23, 2014 Rise Set
Actual Time 6:52 AM PDT 6:59 PM PDT
Civil Twilight 6:23 AM PDT 7:28 PM PDT
Nautical Twilight 5:49 AM PDT 8:03 PM PDT
Astronomical Twilight 5:14 AM PDT 8:37 PM PDT
Moon 6:21 AM PDT 6:40 PM PDT
Length of Visible Light 13h 05m
Length of Day
12h 06m
Tomorrow will be 3m 5s shorter.
Waning Crescent, 0% of the Moon is Illuminated
Today
Waning Crescent
Sep 24
New
Oct 1
First Quarter
Oct 8
Full
Oct 15
Last Quarter

Today's Extremes

State Highs State Lows

Community

WunderPhotos

Upload Photos

1,755,821 photos uploaded!

WunderBlogs® & News

Nearby

Snow Depth

Station Depth Elevation
Irish Taylor 0 in 5500 ft
Blue Mountain Spring 0 in 5900 ft
Greenpoint 1 in 3200 ft
Clackamas Lake 0 in 3400 ft
Schneider Meadows 0 in 5400 ft

Earthquake Activity

City Distance Mag. Time & Date
No recent earthquake activity has been reported nearby.
Minimum magnitude displayed is 2.5.

Coastal Water Temperatures

Place Temperature
No Stations Reporting

Nearby Weather Stations